createdAt,value
2023-04-07T00:01:08.429Z,27.87
2023-04-07T00:03:35.887Z,27.90
2023-04-07T00:06:03.204Z,28.93
2023-04-07T00:08:30.441Z,29.20
2023-04-07T00:10:58.585Z,27.80
2023-04-07T00:13:26.363Z,29.20
2023-04-07T00:15:53.698Z,28.03
2023-04-07T00:18:20.951Z,31.53
2023-04-07T00:20:48.221Z,29.83
2023-04-07T00:23:15.709Z,28.13
2023-04-07T00:25:42.861Z,30.40
2023-04-07T00:28:10.234Z,31.50
2023-04-07T00:30:37.578Z,29.77
2023-04-07T00:33:04.977Z,29.67
2023-04-07T00:35:37.157Z,31.60
2023-04-07T00:38:04.499Z,32.73
2023-04-07T00:40:31.832Z,32.47
2023-04-07T00:42:59.089Z,32.87
2023-04-07T00:45:26.409Z,33.27
2023-04-07T00:47:53.810Z,35.07
2023-04-07T00:50:21.367Z,32.87
2023-04-07T00:52:48.824Z,41.03
2023-04-07T00:55:16.038Z,35.10
2023-04-07T00:57:43.320Z,40.67
2023-04-07T01:00:11.174Z,35.23
2023-04-07T01:03:06.550Z,41.47
2023-04-07T01:05:59.289Z,32.93
2023-04-07T01:08:42.949Z,51.53
2023-04-07T01:11:28.498Z,52.13
2023-04-07T01:14:00.469Z,34.70
2023-04-07T01:17:01.261Z,34.20
2023-04-07T01:19:39.930Z,48.47
2023-04-07T01:25:30.513Z,40.80
2023-04-07T01:28:32.427Z,57.47
2023-04-07T01:31:01.818Z,32.97
2023-04-07T01:33:32.712Z,34.57
2023-04-07T01:36:03.077Z,41.17
2023-04-07T01:38:31.201Z,34.80
2023-04-07T01:41:00.781Z,36.80
2023-04-07T01:43:28.918Z,31.57
2023-04-07T01:45:57.748Z,32.23
2023-04-07T01:48:26.037Z,30.40
2023-04-07T01:50:54.835Z,30.03
2023-04-07T01:53:23.321Z,32.50
2023-04-07T01:55:50.953Z,29.33
2023-04-07T01:58:18.305Z,30.90
2023-04-07T02:00:45.596Z,31.23
2023-04-07T02:03:52.900Z,29.93
2023-04-07T02:06:33.673Z,27.67
2023-04-07T02:11:36.204Z,26.27
2023-04-07T02:16:48.863Z,27.33
2023-04-07T02:19:16.708Z,26.17
2023-04-07T02:21:46.198Z,28.57
2023-04-07T02:24:13.593Z,26.20
2023-04-07T02:26:41.919Z,26.97
2023-04-07T02:29:09.295Z,27.73
2023-04-07T02:31:37.037Z,27.02
2023-04-07T02:34:04.326Z,26.47
2023-04-07T02:36:32.994Z,26.33
2023-04-07T02:39:00.386Z,27.37
2023-04-07T02:41:27.604Z,26.30
2023-04-07T02:43:55.012Z,27.00
2023-04-07T02:46:22.364Z,27.10
2023-04-07T02:48:49.568Z,25.97
2023-04-07T02:51:16.749Z,26.03
2023-04-07T02:53:44.076Z,25.97
2023-04-07T02:56:12.090Z,26.47
2023-04-07T02:58:39.319Z,24.43
2023-04-07T03:01:06.860Z,24.00
2023-04-07T03:03:35.550Z,26.63
2023-04-07T03:06:09.094Z,25.07
2023-04-07T03:08:43.367Z,25.87
2023-04-07T03:11:10.979Z,26.90
2023-04-07T03:13:38.632Z,27.90
2023-04-07T03:16:06.134Z,25.37
2023-04-07T03:18:41.533Z,26.00
2023-04-07T03:21:09.793Z,28.77
2023-04-07T03:23:37.165Z,27.57
2023-04-07T03:26:04.538Z,25.70
2023-04-07T03:28:35.579Z,27.43
2023-04-07T03:31:03.792Z,26.43
2023-04-07T03:33:31.004Z,26.70
2023-04-07T03:35:58.198Z,25.33
2023-04-07T03:38:26.785Z,26.07
2023-04-07T03:40:57.904Z,27.40
2023-04-07T03:43:25.561Z,24.77
2023-04-07T03:45:56.041Z,25.77
2023-04-07T03:48:24.795Z,24.40
2023-04-07T03:51:01.910Z,25.30
2023-04-07T03:53:29.179Z,25.17
2023-04-07T03:55:57.511Z,27.23
2023-04-07T03:58:42.769Z,25.40
2023-04-07T04:01:14.835Z,25.67
2023-04-07T04:03:44.385Z,24.63
2023-04-07T04:06:27.321Z,26.47
2023-04-07T04:09:01.404Z,23.73
2023-04-07T04:11:29.799Z,26.53
2023-04-07T04:14:03.697Z,25.17
2023-04-07T04:16:33.036Z,24.17
2023-04-07T04:19:04.453Z,25.27
2023-04-07T04:21:31.995Z,26.90
2023-04-07T04:23:59.369Z,25.63
2023-04-07T04:26:29.967Z,25.67
2023-04-07T04:29:03.596Z,25.67
2023-04-07T04:31:31.057Z,25.23
2023-04-07T04:33:59.259Z,26.37
2023-04-07T04:36:27.593Z,24.77
2023-04-07T04:38:59.558Z,25.47
2023-04-07T04:41:26.755Z,25.23
2023-04-07T04:43:54.041Z,25.60
2023-04-07T04:46:25.980Z,25.67
2023-04-07T04:48:54.209Z,24.40
2023-04-07T04:51:23.164Z,24.10
2023-04-07T04:53:58.405Z,25.03
2023-04-07T04:56:27.226Z,23.53
2023-04-07T04:58:54.923Z,22.95
2023-04-07T05:01:48.596Z,21.50
2023-04-07T05:04:18.007Z,22.07
2023-04-07T05:06:51.999Z,23.13
2023-04-07T05:09:22.509Z,25.02
2023-04-07T05:11:50.444Z,23.10
2023-04-07T05:14:18.146Z,25.90
2023-04-07T05:16:52.948Z,23.53
2023-04-07T05:19:23.412Z,21.20
2023-04-07T05:21:54.263Z,22.65
2023-04-07T05:24:22.935Z,23.27
2023-04-07T05:26:57.164Z,22.75
2023-04-07T05:29:25.177Z,22.35
2023-04-07T05:31:53.152Z,23.20
2023-04-07T05:34:22.618Z,21.30
2023-04-07T05:36:54.109Z,23.00
2023-04-07T05:39:22.261Z,20.73
2023-04-07T05:41:52.723Z,22.38
2023-04-07T05:44:24.277Z,20.87
2023-04-07T05:46:51.848Z,21.00
2023-04-07T05:49:22.422Z,20.90
2023-04-07T05:51:58.134Z,22.90
2023-04-07T05:54:25.678Z,20.60
2023-04-07T05:56:53.557Z,20.65
2023-04-07T05:59:22.153Z,20.47
2023-04-07T06:01:51.420Z,19.75
2023-04-07T06:04:18.912Z,24.70
2023-04-07T06:06:49.049Z,19.65
2023-04-07T06:09:18.775Z,20.70
2023-04-07T06:11:47.166Z,19.40
2023-04-07T06:14:18.169Z,19.23
2023-04-07T06:16:45.887Z,19.55
2023-04-07T06:19:13.296Z,19.97
2023-04-07T06:21:40.883Z,20.52
2023-04-07T06:24:08.425Z,20.25
2023-04-07T06:26:36.331Z,20.40
2023-04-07T06:29:03.641Z,20.07
2023-04-07T06:31:30.853Z,20.83
2023-04-07T06:33:58.236Z,19.33
2023-04-07T06:36:25.666Z,20.00
2023-04-07T06:38:53.906Z,18.52
2023-04-07T06:41:21.203Z,18.63
2023-04-07T06:43:53.435Z,17.90
2023-04-07T06:46:21.377Z,18.77
2023-04-07T06:48:48.746Z,16.75
2023-04-07T06:51:16.020Z,17.10
2023-04-07T06:53:44.377Z,17.02
2023-04-07T06:56:13.196Z,16.52
2023-04-07T06:58:40.776Z,15.40
2023-04-07T07:01:08.208Z,15.60
2023-04-07T07:03:35.902Z,16.73
2023-04-07T07:06:07.311Z,18.00
2023-04-07T07:08:34.823Z,16.17
2023-04-07T07:11:02.248Z,17.13
2023-04-07T07:13:29.611Z,17.10
2023-04-07T07:15:56.957Z,16.13
2023-04-07T07:18:24.533Z,16.23
2023-04-07T07:20:52.184Z,16.45
2023-04-07T07:23:19.658Z,15.15
2023-04-07T07:25:47.090Z,14.27
2023-04-07T07:28:14.424Z,15.40
2023-04-07T07:30:41.826Z,16.20
2023-04-07T07:33:09.074Z,15.32
2023-04-07T07:35:38.012Z,15.73
2023-04-07T07:38:05.493Z,15.55
2023-04-07T07:40:33.666Z,16.35
2023-04-07T07:43:01.496Z,16.90
2023-04-07T07:45:28.876Z,14.95
2023-04-07T07:47:56.249Z,16.75
2023-04-07T07:50:23.647Z,16.60
2023-04-07T07:52:51.047Z,18.23
2023-04-07T07:55:18.501Z,17.30
2023-04-07T07:57:45.806Z,16.20
2023-04-07T08:00:13.909Z,15.52
2023-04-07T08:02:41.619Z,16.25
2023-04-07T08:05:09.359Z,15.65
2023-04-07T08:07:36.831Z,16.13
2023-04-07T08:10:04.719Z,14.82
2023-04-07T08:12:32.109Z,14.60
2023-04-07T08:14:59.419Z,16.48
2023-04-07T08:17:26.839Z,14.45
2023-04-07T08:19:54.168Z,14.23
2023-04-07T08:22:21.475Z,14.40
2023-04-07T08:24:48.881Z,14.85
2023-04-07T08:27:16.100Z,14.07
2023-04-07T08:29:43.433Z,13.95
2023-04-07T08:32:11.162Z,14.55
2023-04-07T08:34:38.367Z,14.18
2023-04-07T08:37:05.580Z,15.10
2023-04-07T08:39:33.477Z,13.05
2023-04-07T08:42:01.139Z,12.98
2023-04-07T08:44:29.922Z,12.35
2023-04-07T08:47:01.288Z,12.27
2023-04-07T08:49:31.669Z,12.40
2023-04-07T08:52:02.940Z,10.40
2023-04-07T08:54:33.991Z,11.55
2023-04-07T08:57:02.878Z,9.75
2023-04-07T08:59:33.669Z,10.00
2023-04-07T09:02:02.358Z,10.75
2023-04-07T09:04:29.914Z,11.32
2023-04-07T09:06:57.191Z,10.02
2023-04-07T09:09:24.589Z,36.17
2023-04-07T09:11:52.865Z,20.00
2023-04-07T09:14:21.918Z,11.63
2023-04-07T09:16:49.330Z,12.15
2023-04-07T09:19:16.581Z,11.60
2023-04-07T09:21:53.114Z,12.32
2023-04-07T09:24:28.541Z,13.48
2023-04-07T09:27:17.610Z,12.55
2023-04-07T09:29:47.846Z,12.68
2023-04-07T09:32:44.656Z,13.02
2023-04-07T09:35:12.146Z,12.10
2023-04-07T09:37:39.424Z,13.23
2023-04-07T09:40:07.882Z,13.45
2023-04-07T09:42:37.385Z,12.40
2023-04-07T09:45:05.101Z,12.18
2023-04-07T09:47:33.343Z,11.68
2023-04-07T09:50:07.005Z,12.93
2023-04-07T09:52:52.907Z,12.88
2023-04-07T09:55:24.531Z,12.80
2023-04-07T09:57:52.910Z,14.32
2023-04-07T10:00:20.275Z,13.85
2023-04-07T10:02:48.185Z,14.20
2023-04-07T10:05:15.979Z,14.35
2023-04-07T10:07:43.961Z,15.05
2023-04-07T10:10:11.690Z,16.88
2023-04-07T10:12:39.395Z,16.25
2023-04-07T10:15:07.522Z,25.92
2023-04-07T10:17:37.384Z,25.33
2023-04-07T10:20:07.549Z,20.17
2023-04-07T10:22:36.672Z,15.98
2023-04-07T10:25:16.731Z,16.15
2023-04-07T10:27:51.379Z,15.55
2023-04-07T10:30:27.244Z,17.25
2023-04-07T10:32:55.901Z,16.38
2023-04-07T10:35:24.027Z,13.90
2023-04-07T10:38:16.832Z,14.57
2023-04-07T10:40:44.544Z,14.20
2023-04-07T10:43:12.406Z,13.98
2023-04-07T10:45:59.812Z,13.07
2023-04-07T10:48:29.095Z,13.95
2023-04-07T10:51:05.582Z,14.20
2023-04-07T10:53:33.111Z,16.05
2023-04-07T10:56:01.053Z,15.05
2023-04-07T10:58:33.400Z,15.32
2023-04-07T11:01:00.743Z,15.68
2023-04-07T11:03:30.641Z,15.00
2023-04-07T11:06:08.439Z,15.18
2023-04-07T11:08:38.252Z,15.63
2023-04-07T11:11:09.490Z,14.20
2023-04-07T11:13:51.477Z,14.57
2023-04-07T11:16:34.634Z,15.18
2023-04-07T11:19:02.083Z,14.90
2023-04-07T11:21:30.511Z,15.07
2023-04-07T11:23:57.733Z,16.17
2023-04-07T11:26:25.170Z,16.65
2023-04-07T11:28:55.772Z,15.95
2023-04-07T11:34:00.776Z,14.73
2023-04-07T11:36:35.995Z,13.02
2023-04-07T11:39:04.188Z,13.65
2023-04-07T11:41:33.594Z,13.73
2023-04-07T11:44:11.445Z,12.38
2023-04-07T11:46:55.012Z,13.20
2023-04-07T11:49:27.956Z,11.95
2023-04-07T11:52:00.915Z,12.55
2023-04-07T11:54:38.694Z,12.85
2023-04-07T11:57:06.103Z,13.60
2023-04-07T11:59:33.389Z,14.20
2023-04-07T12:02:00.778Z,14.55
2023-04-07T12:04:28.205Z,14.65
2023-04-07T12:06:55.601Z,14.82
2023-04-07T12:09:29.315Z,15.40
2023-04-07T12:11:57.950Z,16.30
2023-04-07T12:14:27.681Z,16.90
2023-04-07T12:16:57.769Z,17.33
2023-04-07T12:19:28.339Z,16.38
2023-04-07T12:21:56.983Z,15.13
2023-04-07T12:24:24.558Z,15.90
2023-04-07T12:26:51.953Z,18.63
2023-04-07T12:29:20.411Z,18.60
2023-04-07T12:31:50.868Z,17.92
2023-04-07T12:34:19.170Z,19.85
2023-04-07T12:36:46.562Z,18.38
2023-04-07T12:39:14.094Z,19.75
2023-04-07T12:41:42.012Z,19.70
2023-04-07T12:44:10.061Z,20.65
2023-04-07T12:46:37.382Z,22.00
2023-04-07T12:49:04.628Z,22.20
2023-04-07T12:51:33.611Z,19.08
2023-04-07T12:54:01.022Z,18.77
2023-04-07T12:56:28.817Z,18.40
2023-04-07T12:58:56.044Z,17.45
2023-04-07T13:01:23.573Z,18.30
2023-04-07T13:03:51.489Z,17.45
2023-04-07T13:06:19.451Z,19.20
2023-04-07T13:08:46.764Z,18.23
2023-04-07T13:11:14.104Z,16.45
2023-04-07T13:13:41.318Z,14.75
2023-04-07T13:16:09.162Z,15.88
2023-04-07T13:18:36.850Z,15.52
2023-04-07T13:23:53.542Z,15.23
2023-04-07T13:26:20.965Z,15.23
2023-04-07T13:28:48.687Z,15.77
2023-04-07T13:31:16.458Z,15.00
2023-04-07T13:33:44.199Z,14.98
2023-04-07T13:36:11.543Z,14.73
2023-04-07T13:38:38.873Z,15.38
2023-04-07T13:41:06.771Z,15.55
2023-04-07T13:43:34.018Z,15.15
2023-04-07T13:46:01.347Z,14.52
2023-04-07T13:48:28.600Z,14.88
2023-04-07T13:50:56.111Z,15.05
2023-04-07T13:53:23.720Z,14.85
2023-04-07T13:55:50.924Z,16.40
2023-04-07T13:58:18.376Z,15.20
2023-04-07T14:00:45.596Z,15.15
2023-04-07T14:03:13.038Z,13.55
2023-04-07T14:05:40.435Z,15.43
2023-04-07T14:08:07.852Z,15.30
2023-04-07T14:10:37.815Z,15.82
2023-04-07T14:13:05.119Z,15.65
2023-04-07T14:15:32.498Z,14.07
2023-04-07T14:18:01.052Z,14.57
2023-04-07T14:20:28.409Z,13.82
2023-04-07T14:22:55.660Z,15.18
2023-04-07T14:25:23.212Z,12.43
2023-04-07T14:27:52.365Z,13.50
2023-04-07T14:30:19.798Z,15.55
2023-04-07T14:32:46.986Z,14.05
2023-04-07T14:35:14.249Z,15.25
2023-04-07T14:37:41.649Z,17.73
2023-04-07T14:40:09.563Z,14.73
2023-04-07T14:42:37.182Z,13.60
2023-04-07T14:45:04.722Z,12.80
2023-04-07T14:47:32.062Z,13.07
2023-04-07T14:49:59.345Z,13.15
2023-04-07T14:52:27.245Z,13.15
2023-04-07T14:54:54.584Z,14.65
2023-04-07T14:57:22.479Z,13.77
2023-04-07T14:59:49.788Z,14.38
2023-04-07T15:02:17.231Z,14.65
2023-04-07T15:04:44.666Z,17.35
2023-04-07T15:07:11.975Z,16.70
2023-04-07T15:09:39.302Z,13.60
2023-04-07T15:12:06.539Z,17.10
2023-04-07T15:14:33.856Z,16.42
2023-04-07T15:17:01.093Z,14.38
2023-04-07T15:19:28.306Z,15.75
2023-04-07T15:21:55.497Z,15.57
2023-04-07T15:24:22.751Z,15.02
2023-04-07T15:26:50.159Z,16.00
2023-04-07T15:29:17.720Z,14.85
2023-04-07T15:31:45.012Z,14.13
2023-04-07T15:34:12.981Z,14.07
2023-04-07T15:36:40.791Z,13.45
2023-04-07T15:39:08.196Z,13.77
2023-04-07T15:41:35.654Z,13.10
2023-04-07T15:44:04.146Z,14.10
2023-04-07T15:46:34.338Z,13.75
2023-04-07T15:49:01.813Z,13.25
2023-04-07T15:51:30.059Z,13.85
2023-04-07T15:53:57.392Z,12.82
2023-04-07T15:56:24.966Z,12.63
2023-04-07T15:58:52.859Z,12.65
2023-04-07T16:01:20.498Z,13.82
2023-04-07T16:03:48.651Z,14.02
2023-04-07T16:06:16.271Z,13.48
2023-04-07T16:08:43.719Z,13.93
2023-04-07T16:11:11.217Z,14.75
2023-04-07T16:13:38.582Z,13.52
2023-04-07T16:16:07.792Z,12.68
2023-04-07T16:18:35.299Z,14.05
2023-04-07T16:21:04.678Z,15.05
2023-04-07T16:23:32.203Z,14.43
2023-04-07T16:25:59.862Z,13.50
2023-04-07T16:28:27.418Z,13.65
2023-04-07T16:30:54.749Z,13.82
2023-04-07T16:33:25.495Z,13.80
2023-04-07T16:35:53.353Z,13.93
2023-04-07T16:38:20.764Z,13.45
2023-04-07T16:41:00.769Z,14.23
2023-04-07T16:43:31.003Z,13.82
2023-04-07T16:46:00.214Z,14.45
2023-04-07T16:48:27.764Z,13.45
2023-04-07T16:50:55.001Z,12.55
2023-04-07T16:53:22.355Z,13.95
2023-04-07T16:55:49.592Z,11.82
2023-04-07T16:58:19.163Z,13.15
2023-04-07T17:00:46.734Z,13.18
2023-04-07T17:03:17.943Z,12.88
2023-04-07T17:05:47.169Z,13.43
2023-04-07T17:08:14.309Z,13.60
2023-04-07T17:10:41.537Z,13.05
2023-04-07T17:13:08.952Z,13.38
2023-04-07T17:15:38.064Z,14.20
2023-04-07T17:18:05.561Z,12.65
2023-04-07T17:20:32.924Z,14.13
2023-04-07T17:23:00.131Z,12.90
2023-04-07T17:25:27.396Z,14.45
2023-04-07T17:27:55.272Z,15.48
2023-04-07T17:30:22.836Z,14.40
2023-04-07T17:32:50.815Z,14.80
2023-04-07T17:35:18.381Z,15.60
2023-04-07T17:37:46.192Z,15.77
2023-04-07T17:40:13.604Z,15.20
2023-04-07T17:42:41.285Z,15.77
2023-04-07T17:45:09.470Z,15.88
2023-04-07T17:47:37.445Z,15.48
2023-04-07T17:50:05.638Z,14.90
2023-04-07T17:52:33.024Z,14.52
2023-04-07T17:55:01.776Z,15.02
2023-04-07T17:57:29.213Z,14.95
2023-04-07T17:59:56.483Z,16.02
2023-04-07T18:02:23.792Z,16.77
2023-04-07T18:04:51.079Z,16.90
2023-04-07T18:07:18.442Z,17.42
2023-04-07T18:09:45.769Z,18.48
2023-04-07T18:12:12.990Z,17.25
2023-04-07T18:14:40.462Z,15.90
2023-04-07T18:17:07.758Z,15.50
2023-04-07T18:19:35.117Z,15.88
2023-04-07T18:22:02.367Z,16.20
2023-04-07T18:24:29.670Z,14.90
2023-04-07T18:26:57.005Z,15.43
2023-04-07T18:29:24.442Z,17.27
2023-04-07T18:31:51.688Z,16.15
2023-04-07T18:34:19.040Z,16.15
2023-04-07T18:36:47.663Z,16.45
2023-04-07T18:39:15.399Z,16.35
2023-04-07T18:41:44.793Z,17.52
2023-04-07T18:44:13.140Z,16.40
2023-04-07T18:46:40.614Z,17.40
2023-04-07T18:49:08.045Z,16.42
2023-04-07T18:51:35.326Z,17.60
2023-04-07T18:54:02.590Z,16.90
2023-04-07T18:56:32.770Z,16.48
2023-04-07T18:59:00.189Z,18.55
2023-04-07T19:01:27.709Z,17.58
2023-04-07T19:03:57.198Z,17.90
2023-04-07T19:06:24.629Z,17.67
2023-04-07T19:08:52.238Z,19.55
2023-04-07T19:11:19.569Z,19.00
2023-04-07T19:13:47.014Z,20.08
2023-04-07T19:16:15.429Z,18.83
2023-04-07T19:18:42.782Z,22.05
2023-04-07T19:21:10.342Z,22.02
2023-04-07T19:23:40.200Z,21.23
2023-04-07T19:26:07.493Z,21.20
2023-04-07T19:28:34.747Z,20.40
2023-04-07T19:31:02.493Z,22.25
2023-04-07T19:33:29.624Z,20.70
2023-04-07T19:35:57.100Z,22.02
2023-04-07T19:38:24.435Z,21.67
2023-04-07T19:40:51.579Z,23.83
2023-04-07T19:43:19.017Z,25.75
2023-04-07T19:45:49.302Z,23.88
2023-04-07T19:48:17.660Z,23.80
2023-04-07T19:50:49.521Z,24.85
2023-04-07T19:53:18.012Z,26.05
2023-04-07T19:55:46.362Z,23.58
2023-04-07T19:58:13.855Z,25.20
2023-04-07T20:00:41.561Z,25.30
2023-04-07T20:03:08.873Z,26.10
2023-04-07T20:05:37.209Z,27.02
2023-04-07T20:08:04.449Z,26.65
2023-04-07T20:10:32.734Z,27.98
2023-04-07T20:13:00.009Z,30.08
2023-04-07T20:15:27.350Z,26.95
2023-04-07T20:17:54.728Z,29.17
2023-04-07T20:20:23.608Z,29.10
2023-04-07T20:22:51.288Z,30.45
2023-04-07T20:25:18.615Z,31.50
2023-04-07T20:27:49.071Z,32.55
2023-04-07T20:30:16.926Z,37.70
2023-04-07T20:32:46.220Z,32.50
2023-04-07T20:35:13.696Z,38.63
2023-04-07T20:37:40.984Z,30.60
2023-04-07T20:40:09.167Z,35.85
2023-04-07T20:42:36.785Z,28.50
2023-04-07T20:45:05.871Z,35.05
2023-04-07T20:47:35.982Z,34.92
2023-04-07T20:50:03.460Z,31.42
2023-04-07T20:52:30.775Z,29.73
2023-04-07T20:54:58.404Z,32.17
2023-04-07T20:57:26.689Z,30.88
2023-04-07T20:59:54.037Z,26.88
2023-04-07T21:02:21.579Z,28.13
2023-04-07T21:04:49.148Z,24.67
2023-04-07T21:07:16.688Z,27.02
2023-04-07T21:09:43.941Z,28.02
2023-04-07T21:12:11.256Z,25.25
2023-04-07T21:14:38.540Z,24.02
2023-04-07T21:17:05.861Z,21.58
2023-04-07T21:19:33.512Z,21.73
2023-04-07T21:22:01.105Z,23.65
2023-04-07T21:24:29.824Z,22.58
2023-04-07T21:26:57.089Z,22.50
2023-04-07T21:29:24.817Z,21.50
2023-04-07T21:31:53.255Z,21.73
2023-04-07T21:34:20.660Z,18.65
2023-04-07T21:36:47.951Z,18.63
2023-04-07T21:39:15.144Z,20.77
2023-04-07T21:41:42.355Z,20.70
2023-04-07T21:44:10.742Z,20.25
2023-04-07T21:46:38.113Z,22.15
2023-04-07T21:49:05.404Z,22.45
2023-04-07T21:51:33.774Z,22.77
2023-04-07T21:54:01.480Z,23.23
2023-04-07T21:56:29.224Z,22.08
2023-04-07T21:58:56.956Z,22.55
2023-04-07T22:01:24.669Z,22.15
2023-04-07T22:03:52.373Z,21.40
2023-04-07T22:06:19.648Z,19.63
2023-04-07T22:09:00.200Z,20.88
2023-04-07T22:11:28.750Z,20.77
2023-04-07T22:13:56.230Z,22.77
2023-04-07T22:16:23.546Z,18.38
2023-04-07T22:18:51.161Z,19.50
2023-04-07T22:21:18.444Z,16.60
2023-04-07T22:23:45.628Z,17.27
2023-04-07T22:26:13.694Z,16.25
2023-04-07T22:28:41.391Z,16.92
2023-04-07T22:31:08.642Z,18.65
2023-04-07T22:33:36.306Z,16.60
2023-04-07T22:36:04.230Z,16.75
2023-04-07T22:38:31.690Z,16.55
2023-04-07T22:40:58.791Z,16.05
2023-04-07T22:43:26.002Z,15.45
2023-04-07T22:45:53.198Z,15.15
2023-04-07T22:48:20.744Z,15.80
2023-04-07T22:50:48.069Z,14.95
2023-04-07T22:53:15.441Z,15.63
2023-04-07T22:55:42.677Z,16.48
2023-04-07T22:58:09.941Z,17.50
2023-04-07T23:00:37.143Z,16.38
2023-04-07T23:03:04.825Z,15.68
2023-04-07T23:05:32.126Z,15.02
2023-04-07T23:07:59.381Z,15.57
2023-04-07T23:10:26.695Z,16.52
2023-04-07T23:12:54.144Z,13.73
2023-04-07T23:15:22.914Z,17.20
2023-04-07T23:17:50.244Z,15.50
2023-04-07T23:20:17.854Z,15.60
2023-04-07T23:22:45.260Z,16.05
2023-04-07T23:25:12.484Z,14.52
2023-04-07T23:27:39.904Z,15.63
2023-04-07T23:30:08.267Z,15.73
2023-04-07T23:32:35.531Z,14.85
2023-04-07T23:35:02.974Z,14.52
2023-04-07T23:37:30.404Z,15.63
2023-04-07T23:39:57.650Z,14.90
2023-04-07T23:42:24.947Z,17.08
2023-04-07T23:44:52.369Z,16.05
2023-04-07T23:47:19.651Z,14.70
2023-04-07T23:49:46.898Z,14.90
2023-04-07T23:52:15.232Z,14.45
2023-04-07T23:54:42.974Z,15.30
2023-04-07T23:57:10.152Z,14.18
2023-04-07T23:59:37.377Z,14.82
